LIEE

Cagliari Elmas Airport

Cagliari, Italy
TAF LIEE 211700Z 2118/2218 30015KT 9999 SCT040
Issued Valid From Valid To
Jul-21 @ 17:00 UTC
(6 hours ago)
Jul-21 @ 18:00 UTC
(5 hours ago)
Jul-22 @ 18:00 UTC
(in 19 hours)
Jul-21 @ 18:00 to Jul-22 @ 18:00
TAF LIEE 211700Z 2118/2218 30015KT 9999 SCT040
Wind Visibility Clouds
300° at 15 knots 10,000+ meters
  • Scattered at 4,000' AGL
TAF LIEE 211700Z 2118/2218 30015KT 9999 SCT040
Issued Jul-21 @ 17:00 UTC
(6 hours ago)
Valid From Jul-21 @ 18:00 UTC
(5 hours ago)
Valid To Jul-22 @ 18:00 UTC
(in 19 hours)
Jul-21 @ 18:00 - Jul-22 @ 18:00
Wind Visibility
300° at 15 knots 10,000+ meters
Clouds
  • Scattered at 4,000' AGL